Time;durP1;ratioP1;P1;durP2;ratioP2;P2;SDS_P1;SDS_P2;PMS_P1;PMS_P2;Temp;Humidity;BMP_temperature;BMP_pressure;BME280_temperature;BME280_humidity;BME280_pressure;Samples;Min_cycle;Max_cycle;Signal;HPM_P1;HPM_P2
2022/09/26 00:01:48;;;;;;;;;1.00;0.67;;;;;16.05;51.54;100901.78;5111579;27;44932;-63
2022/09/26 00:04:20;;;;;;;;;1.00;1.00;;;;;15.91;51.62;100883.75;5112168;27;45586;-63
2022/09/26 00:06:46;;;;;;;;;1.33;0.67;;;;;15.95;51.76;100884.66;5106727;27;44997;-64
2022/09/26 00:09:13;;;;;;;;;0.00;0.00;;;;;15.96;51.88;100890.06;5112110;27;45073;-64
2022/09/26 00:11:39;;;;;;;;;1.67;0.67;;;;;15.82;52.05;100873.81;5105990;27;45152;-64
2022/09/26 00:14:07;;;;;;;;;1.00;1.00;;;;;15.78;51.94;100861.22;5112495;27;45090;-63
2022/09/26 00:16:34;;;;;;;;;1.33;0.00;;;;;15.78;52.11;100863.91;5112322;27;45163;-63
2022/09/26 00:18:59;;;;;;;;;1.00;0.33;;;;;15.93;52.19;100886.47;5112523;27;45088;-64
2022/09/26 00:21:27;;;;;;;;;0.67;0.67;;;;;15.94;51.67;100881.09;5110171;27;45223;-63
2022/09/26 00:23:53;;;;;;;;;0.00;0.00;;;;;15.86;52.23;100879.25;5112937;27;45111;-63
2022/09/26 00:26:20;;;;;;;;;0.33;0.33;;;;;15.78;52.40;100871.09;5110438;27;46100;-61
2022/09/26 00:28:46;;;;;;;;;1.67;0.67;;;;;15.78;52.60;100868.41;5111990;27;44980;-62
2022/09/26 00:31:15;;;;;;;;;1.00;1.00;;;;;15.75;52.64;100858.47;5111746;27;45081;-62
2022/09/26 00:33:40;;;;;;;;;3.33;1.00;;;;;15.74;52.90;100856.66;5112081;27;45915;-63
2022/09/26 00:36:07;;;;;;;;;1.67;1.67;;;;;15.76;52.61;100846.84;5111982;27;45303;-62
2022/09/26 00:38:33;;;;;;;;;1.00;1.00;;;;;15.75;52.46;100846.78;5110623;27;45009;-62
2022/09/26 00:40:58;;;;;;;;;0.67;0.67;;;;;15.83;52.38;100848.66;5112587;27;45071;-64
2022/09/26 00:43:27;;;;;;;;;2.67;0.67;;;;;15.82;52.38;100844.19;5112344;27;45289;-62
2022/09/26 00:45:56;;;;;;;;;0.00;0.00;;;;;15.90;52.31;100848.72;5112576;27;45158;-64
2022/09/26 00:48:22;;;;;;;;;0.67;0.67;;;;;15.87;52.34;100843.31;5110649;27;45019;-64
2022/09/26 00:50:48;;;;;;;;;0.33;0.33;;;;;15.84;52.33;100846.91;5112010;27;45110;-63
2022/09/26 00:53:17;;;;;;;;;2.00;1.00;;;;;15.78;51.94;100831.56;5111356;27;45893;-62
2022/09/26 00:55:51;;;;;;;;;0.33;0.00;;;;;15.73;52.02;100840.50;5109796;27;44916;-62
2022/09/26 00:58:26;;;;;;;;;0.33;0.33;;;;;15.68;52.25;100827.00;5109837;27;44933;-62
2022/09/26 01:00:52;;;;;;;;;1.00;0.00;;;;;15.63;52.10;100823.38;5109001;27;45722;-63
2022/09/26 01:03:19;;;;;;;;;2.00;0.67;;;;;15.60;52.49;100823.34;5109914;27;45789;-62
2022/09/26 01:05:45;;;;;;;;;1.67;1.67;;;;;15.53;52.28;100814.31;5110833;27;45090;-62
2022/09/26 01:08:16;;;;;;;;;0.33;0.33;;;;;15.61;52.74;100820.66;5110487;27;44993;-64
2022/09/26 01:10:43;;;;;;;;;0.00;0.00;;;;;15.45;52.52;100798.09;5112402;27;44954;-63
2022/09/26 01:13:08;;;;;;;;;0.00;0.00;;;;;15.50;52.19;100800.84;5109140;27;46098;-63
2022/09/26 01:15:35;;;;;;;;;1.00;1.00;;;;;15.57;52.57;100818.81;5111636;27;45167;-64
2022/09/26 01:18:01;;;;;;;;;0.00;0.00;;;;;15.60;52.34;100826.94;5111759;27;45012;-63
2022/09/26 01:21:09;;;;;;;;;1.00;1.00;;;;;15.54;52.56;100825.97;5110955;27;45296;-63
2022/09/26 01:23:53;;;;;;;;;4.00;1.00;;;;;15.51;52.88;100825.97;5096549;27;46503;-63
2022/09/26 01:26:37;;;;;;;;;0.00;0.00;;;;;15.50;52.53;100821.47;5111431;27;44931;-62
2022/09/26 01:29:24;;;;;;;;;2.00;1.00;;;;;15.53;52.45;100822.41;5105429;27;45230;-64
2022/09/26 01:35:11;;;;;;;;;1.00;1.00;;;;;15.42;52.90;100803.47;5114596;27;45061;-64
2022/09/26 01:38:13;;;;;;;;;2.00;0.67;;;;;15.55;52.60;100809.84;5113718;27;45381;-64
2022/09/26 01:41:06;;;;;;;;;0.67;0.67;;;;;15.61;52.41;100809.88;5106056;27;45225;-63
2022/09/26 01:44:14;;;;;;;;;0.00;0.00;;;;;15.54;52.23;100799.97;5111864;27;45283;-63
2022/09/26 01:46:53;;;;;;;;;1.00;1.00;;;;;15.44;51.80;100793.63;5078098;27;46691;-62
2022/09/26 01:49:36;;;;;;;;;1.00;0.00;;;;;15.57;51.82;100805.34;5112914;27;45296;-65
2022/09/26 01:52:05;;;;;;;;;1.00;1.00;;;;;15.56;51.86;100797.28;5109327;27;45247;-63
2022/09/26 01:54:43;;;;;;;;;2.00;1.00;;;;;15.56;51.82;100798.19;5114521;27;45106;-62
2022/09/26 01:57:14;;;;;;;;;2.33;2.00;;;;;15.41;51.22;100771.13;5114492;27;45874;-63
2022/09/26 01:59:47;;;;;;;;;1.00;0.33;;;;;15.55;51.32;100788.28;5113584;27;45104;-63
2022/09/26 02:02:20;;;;;;;;;1.67;1.67;;;;;15.13;51.22;100714.44;5114913;27;45043;-64
2022/09/26 02:04:52;;;;;;;;;1.00;1.00;;;;;15.54;50.97;100781.13;5113202;27;45064;-62
2022/09/26 02:07:22;;;;;;;;;1.00;1.00;;;;;15.42;50.80;100763.06;5113873;27;45706;-63
2022/09/26 02:09:58;;;;;;;;;1.00;1.00;;;;;15.47;50.72;100772.06;5113776;27;45094;-62
2022/09/26 02:12:31;;;;;;;;;1.00;1.00;;;;;15.42;51.05;100765.75;5114311;27;45157;-63
2022/09/26 02:15:01;;;;;;;;;1.00;1.00;;;;;15.42;51.05;100765.75;5114128;27;45006;-62
2022/09/26 02:17:34;;;;;;;;;1.67;0.00;;;;;15.38;50.91;100763.06;5113559;27;45482;-64
2022/09/26 02:20:09;;;;;;;;;2.33;1.00;;;;;15.32;51.51;100761.22;5106230;27;45129;-62
2022/09/26 02:22:35;;;;;;;;;1.33;0.00;;;;;15.28;51.34;100752.22;5114719;27;45149;-62
2022/09/26 02:25:02;;;;;;;;;1.67;1.67;;;;;15.24;51.42;100746.81;5114697;27;45063;-63
2022/09/26 02:27:28;;;;;;;;;0.00;0.00;;;;;15.07;51.51;100719.78;5113262;27;45828;-63
2022/09/26 02:29:54;;;;;;;;;1.00;0.67;;;;;15.08;51.80;100714.41;5113862;27;45085;-62
2022/09/26 02:32:28;;;;;;;;;1.00;1.00;;;;;15.19;51.43;100740.50;5112276;27;45170;-63
2022/09/26 02:34:55;;;;;;;;;2.00;2.00;;;;;15.15;51.89;100726.13;5112718;27;45589;-63
2022/09/26 02:37:21;;;;;;;;;0.00;0.00;;;;;15.19;52.02;100736.00;5111278;27;45927;-62
2022/09/26 02:39:50;;;;;;;;;0.67;0.00;;;;;15.07;51.81;100700.94;5112478;27;44986;-62
2022/09/26 02:42:31;;;;;;;;;1.00;1.00;;;;;15.27;52.12;100715.41;5112989;27;44958;-64
2022/09/26 02:45:24;;;;;;;;;0.67;0.67;;;;;15.32;52.10;100719.94;5112429;27;45262;-66
2022/09/26 02:48:34;;;;;;;;;2.33;1.00;;;;;15.30;52.00;100709.16;5112574;27;45594;-64
2022/09/26 02:51:38;;;;;;;;;1.67;1.00;;;;;15.31;52.48;100689.44;5109012;27;45139;-63
2022/09/26 02:54:38;;;;;;;;;1.00;1.00;;;;;15.29;52.17;100692.13;5076717;27;44974;-63
2022/09/26 02:57:09;;;;;;;;;0.00;0.00;;;;;15.28;52.63;100678.66;5047348;28;45191;-63
2022/09/26 02:59:48;;;;;;;;;4.00;2.00;;;;;15.27;52.61;100677.75;5101178;27;45129;-63
2022/09/26 03:02:18;;;;;;;;;0.67;0.67;;;;;15.19;52.64;100649.00;5113232;27;44972;-64
2022/09/26 03:04:50;;;;;;;;;1.00;1.00;;;;;15.27;52.92;100672.34;5110263;27;44936;-63
2022/09/26 03:07:23;;;;;;;;;0.67;0.67;;;;;15.26;52.88;100661.56;5110151;27;45974;-63
2022/09/26 03:09:51;;;;;;;;;3.00;1.00;;;;;15.24;52.95;100666.06;5110971;27;45470;-63
2022/09/26 03:12:19;;;;;;;;;1.00;1.00;;;;;15.21;53.26;100653.50;5111816;27;45085;-64
2022/09/26 03:14:47;;;;;;;;;2.33;0.00;;;;;15.26;53.47;100649.03;5112263;27;45065;-64
2022/09/26 03:17:17;;;;;;;;;3.00;1.00;;;;;15.18;53.26;100621.19;5112084;27;45180;-62
2022/09/26 03:19:54;;;;;;;;;1.67;1.00;;;;;15.27;52.83;100640.06;5110074;27;45514;-63
2022/09/26 03:22:20;;;;;;;;;2.00;2.00;;;;;14.83;53.00;100553.72;5111892;27;45231;-64
2022/09/26 03:24:45;;;;;;;;;1.00;1.00;;;;;15.27;53.25;100631.09;5112197;27;45074;-64
2022/09/26 03:27:13;;;;;;;;;1.00;1.00;;;;;15.28;52.93;100630.22;5110067;27;45256;-65
2022/09/26 03:29:39;;;;;;;;;2.33;1.00;;;;;15.27;52.85;100623.91;5111721;27;45617;-64
2022/09/26 03:32:05;;;;;;;;;0.67;0.67;;;;;15.11;52.89;100590.66;5110795;27;45064;-64
2022/09/26 03:34:30;;;;;;;;;0.67;0.67;;;;;15.07;52.80;100586.13;5113288;27;45031;-64
2022/09/26 03:36:56;;;;;;;;;1.33;1.33;;;;;15.24;53.15;100623.00;5112718;27;45706;-64
2022/09/26 03:39:21;;;;;;;;;0.00;0.00;;;;;15.09;53.27;100586.13;5113315;27;45599;-65
2022/09/26 03:41:46;;;;;;;;;0.33;0.33;;;;;15.24;53.09;100605.03;5113375;27;45096;-64
2022/09/26 03:44:12;;;;;;;;;1.00;1.00;;;;;15.17;53.15;100584.38;5110900;27;49413;-64
2022/09/26 03:46:37;;;;;;;;;0.00;0.00;;;;;15.20;53.01;100584.41;5113678;27;45009;-64
2022/09/26 03:49:03;;;;;;;;;0.00;0.00;;;;;15.22;53.00;100584.41;5112776;27;45755;-64
2022/09/26 03:51:28;;;;;;;;;1.00;1.00;;;;;15.20;53.27;100584.41;5112477;27;56093;-64
2022/09/26 03:53:54;;;;;;;;;1.00;1.00;;;;;15.09;52.97;100573.56;5109769;27;46523;-64
2022/09/26 03:56:20;;;;;;;;;0.00;0.00;;;;;15.19;52.83;100582.59;5111522;27;45020;-63
2022/09/26 03:58:47;;;;;;;;;0.33;0.33;;;;;15.19;52.85;100577.22;5112633;27;45552;-62
2022/09/26 04:01:19;;;;;;;;;2.00;0.33;;;;;15.22;52.74;100569.16;5112122;27;45137;-64
2022/09/26 04:03:45;;;;;;;;;1.00;1.00;;;;;15.26;52.70;100575.44;5112167;27;44929;-64
2022/09/26 04:06:14;;;;;;;;;0.00;0.00;;;;;15.07;52.63;100537.69;5112407;27;45033;-62
2022/09/26 04:08:41;;;;;;;;;0.00;0.00;;;;;15.08;52.66;100530.56;5113039;27;45793;-63
2022/09/26 04:11:08;;;;;;;;;0.67;0.67;;;;;15.25;52.35;100550.34;5112096;27;44931;-65
2022/09/26 04:13:34;;;;;;;;;1.00;1.00;;;;;15.15;52.22;100532.34;5112926;27;45134;-66
2022/09/26 04:16:00;;;;;;;;;0.33;0.33;;;;;15.09;52.30;100516.19;5111417;27;45339;-64
2022/09/26 04:18:27;;;;;;;;;1.00;1.00;;;;;15.17;52.62;100535.94;5109777;27;47279;-62
2022/09/26 04:20:57;;;;;;;;;0.00;0.00;;;;;15.12;52.46;100510.81;5112889;27;45118;-64
2022/09/26 04:23:24;;;;;;;;;1.00;1.00;;;;;15.24;52.45;100523.41;5111228;27;45254;-65
2022/09/26 04:25:49;;;;;;;;;2.33;2.00;;;;;15.22;52.19;100512.66;5113067;27;45166;-63
2022/09/26 04:28:14;;;;;;;;;0.00;0.00;;;;;14.76;52.10;100431.75;5111676;27;64821;-63
2022/09/26 04:30:40;;;;;;;;;0.00;0.00;;;;;15.23;51.98;100506.38;5111578;27;45137;-64
2022/09/26 04:33:05;;;;;;;;;1.00;1.00;;;;;15.23;52.32;100505.50;5112045;27;54230;-64
2022/09/26 04:35:31;;;;;;;;;1.33;1.33;;;;;15.23;52.53;100500.09;5111886;27;45035;-63
2022/09/26 04:37:56;;;;;;;;;1.00;1.00;;;;;14.78;52.80;100421.91;5112171;27;45156;-64
2022/09/26 04:40:21;;;;;;;;;0.00;0.00;;;;;15.22;52.80;100487.53;5110978;27;45031;-63
2022/09/26 04:42:47;;;;;;;;;0.33;0.33;;;;;15.22;52.41;100490.22;5108250;27;45208;-62
2022/09/26 04:45:12;;;;;;;;;2.00;0.00;;;;;15.19;52.71;100485.72;5110638;27;56427;-64
2022/09/26 04:47:37;;;;;;;;;1.33;1.00;;;;;15.19;52.68;100471.38;5108246;27;47421;-64
2022/09/26 04:50:03;;;;;;;;;3.67;1.00;;;;;15.18;52.63;100461.50;5110186;27;59286;-64
2022/09/26 04:52:28;;;;;;;;;1.00;1.00;;;;;15.20;52.69;100460.63;5110908;27;45160;-64
2022/09/26 04:54:53;;;;;;;;;0.67;0.67;;;;;15.12;52.59;100451.63;5109305;27;48511;-64
2022/09/26 04:57:19;;;;;;;;;3.00;3.00;;;;;15.22;52.81;100474.06;5109083;27;45915;-64
2022/09/26 04:59:45;;;;;;;;;2.67;1.00;;;;;15.21;52.34;100470.50;5109762;27;45220;-64
2022/09/26 05:02:10;;;;;;;;;0.00;0.00;;;;;15.19;52.50;100458.81;5109151;27;46735;-63
2022/09/26 05:04:36;;;;;;;;;1.33;1.00;;;;;15.15;52.35;100459.72;5108017;27;45249;-64
2022/09/26 05:07:01;;;;;;;;;0.00;0.00;;;;;15.03;52.72;100438.13;5108412;27;65269;-64
2022/09/26 05:09:26;;;;;;;;;1.00;1.00;;;;;15.14;52.49;100449.81;5111874;27;45101;-65
2022/09/26 05:11:52;;;;;;;;;1.33;1.00;;;;;14.76;52.45;100375.28;5114485;27;48661;-64
2022/09/26 05:14:17;;;;;;;;;1.00;1.00;;;;;15.21;52.76;100437.28;5114245;27;45010;-65
2022/09/26 05:16:43;;;;;;;;;1.00;1.00;;;;;15.09;52.47;100422.91;5111036;27;65808;-64
2022/09/26 05:19:08;;;;;;;;;4.00;4.00;;;;;14.78;52.71;100351.97;5112741;27;45231;-62
2022/09/26 05:21:34;;;;;;;;;1.33;1.33;;;;;15.19;52.61;100412.16;5114706;27;61961;-63
2022/09/26 05:26:50;;;;;;;;;2.00;2.00;;;;;15.21;52.79;100405.00;5111649;27;45236;-63
2022/09/26 05:29:17;;;;;;;;;2.00;2.00;;;;;15.06;53.07;100370.88;5114124;27;45975;-64
2022/09/26 05:31:42;;;;;;;;;3.00;1.00;;;;;15.25;52.69;100394.25;5111759;27;45432;-64
2022/09/26 05:34:12;;;;;;;;;2.00;2.00;;;;;15.06;52.09;100360.13;5114810;27;49350;-62
2022/09/26 05:36:38;;;;;;;;;0.00;0.00;;;;;15.26;52.55;100390.66;5113843;27;45150;-63
2022/09/26 05:40:55;;;;;;;;;1.67;1.67;;;;;15.28;52.35;100394.25;5114911;27;45173;-64
2022/09/26 05:41:52;;;;;;;;;3.67;3.00;;;;;15.27;52.34;100392.44;5115075;27;45237;-64
2022/09/26 05:44:18;;;;;;;;;3.67;2.00;;;;;15.27;52.29;100389.75;5111887;27;45327;-63
2022/09/26 05:46:44;;;;;;;;;4.33;2.00;;;;;14.90;52.35;100327.81;5113725;27;45297;-64
2022/09/26 05:49:10;;;;;;;;;8.00;5.67;;;;;15.09;52.43;100358.31;5110752;27;44950;-65
2022/09/26 05:51:36;;;;;;;;;2.00;2.00;;;;;15.22;52.66;100385.25;5115041;27;45019;-65
2022/09/26 05:54:02;;;;;;;;;5.00;2.67;;;;;15.23;52.95;100384.38;5114700;27;45078;-65
2022/09/26 05:56:27;;;;;;;;;4.00;2.00;;;;;15.23;52.72;100387.06;5112592;27;45449;-65
2022/09/26 05:58:53;;;;;;;;;4.33;3.33;;;;;15.11;53.01;100353.88;5114277;27;45018;-63
2022/09/26 06:01:19;;;;;;;;;2.00;2.00;;;;;15.18;53.12;100368.22;5113696;27;45202;-64
2022/09/26 06:03:45;;;;;;;;;3.33;2.00;;;;;15.22;53.20;100372.69;5113041;27;45167;-64
2022/09/26 06:06:14;;;;;;;;;1.67;1.67;;;;;15.10;52.66;100357.44;5112978;27;45727;-64
2022/09/26 06:08:40;;;;;;;;;1.67;1.00;;;;;15.07;53.24;100359.22;5114569;27;44951;-65
2022/09/26 06:11:14;;;;;;;;;3.00;3.00;;;;;14.98;53.31;100345.75;5112512;27;45190;-67
2022/09/26 06:13:45;;;;;;;;;3.00;1.33;;;;;15.15;53.62;100378.97;5114110;27;45138;-64
2022/09/26 06:16:17;;;;;;;;;2.00;1.67;;;;;14.78;53.43;100313.44;5114065;27;45526;-64
2022/09/26 06:18:42;;;;;;;;;6.00;5.00;;;;;15.14;53.92;100373.59;5113540;27;45303;-65
2022/09/26 06:21:11;;;;;;;;;2.00;2.00;;;;;15.12;54.12;100384.34;5104678;27;45389;-66
2022/09/26 06:23:37;;;;;;;;;2.33;2.33;;;;;15.09;53.62;100377.16;5096247;27;45302;-64
2022/09/26 06:26:08;;;;;;;;;1.33;1.33;;;;;14.99;54.04;100369.97;5095380;27;45353;-64
2022/09/26 06:28:34;;;;;;;;;4.67;4.00;;;;;14.95;54.34;100362.81;5093209;27;45616;-64
2022/09/26 06:31:10;;;;;;;;;1.33;1.33;;;;;14.76;54.68;100343.00;5091428;27;45444;-63
2022/09/26 06:33:36;;;;;;;;;1.33;1.33;;;;;14.78;54.54;100346.59;5094359;27;45323;-63
2022/09/26 06:36:06;;;;;;;;;2.00;1.67;;;;;14.88;54.61;100358.28;5094205;27;51037;-65
2022/09/26 06:38:32;;;;;;;;;3.67;2.33;;;;;14.86;54.75;100363.66;5093532;27;45592;-64
2022/09/26 06:40:57;;;;;;;;;2.33;2.00;;;;;14.74;54.56;100334.06;5105500;27;45419;-64
2022/09/26 06:43:23;;;;;;;;;3.00;3.00;;;;;14.81;54.74;100345.72;5110513;27;45148;-64
2022/09/26 06:45:48;;;;;;;;;4.00;3.00;;;;;14.85;55.01;100347.50;5111175;27;45515;-65
2022/09/26 06:48:16;;;;;;;;;3.67;2.00;;;;;14.89;54.82;100350.22;5084662;27;46021;-64
2022/09/26 06:50:41;;;;;;;;;2.67;2.00;;;;;14.91;54.77;100345.75;5085680;28;45220;-64
2022/09/26 06:53:06;;;;;;;;;4.00;3.00;;;;;14.96;54.83;100342.16;5085771;28;45307;-62
2022/09/26 06:55:32;;;;;;;;;2.00;2.00;;;;;14.97;55.19;100338.59;5083925;28;51829;-64
2022/09/26 06:57:57;;;;;;;;;9.33;4.00;;;;;15.00;54.45;100335.91;5070468;28;45547;-64
2022/09/26 07:00:24;;;;;;;;;2.00;2.00;;;;;15.02;54.51;100326.03;5075018;28;45448;-61
2022/09/26 07:02:50;;;;;;;;;2.33;2.33;;;;;15.06;54.41;100333.22;5075623;28;45455;-63
2022/09/26 07:05:16;;;;;;;;;1.00;1.00;;;;;15.09;54.39;100328.72;5073764;28;45623;-64
2022/09/26 07:07:44;;;;;;;;;1.33;1.33;;;;;14.99;54.26;100300.03;5079077;28;45337;-64
2022/09/26 07:10:10;;;;;;;;;3.33;2.00;;;;;14.77;53.87;100245.31;5075787;28;45430;-63
2022/09/26 07:12:39;;;;;;;;;7.33;3.33;;;;;15.20;53.58;100304.53;5075058;28;45678;-64
2022/09/26 07:15:06;;;;;;;;;4.00;3.00;;;;;15.22;53.54;100315.28;5075097;28;47415;-63
2022/09/26 07:17:32;;;;;;;;;3.67;2.00;;;;;15.04;53.27;100259.69;5074892;28;45623;-63
2022/09/26 07:19:57;;;;;;;;;4.67;3.00;;;;;15.23;53.93;100280.31;5074791;28;45346;-64
2022/09/26 07:22:22;;;;;;;;;4.33;2.00;;;;;15.10;53.69;100257.00;5074393;28;51302;-63
2022/09/26 07:24:49;;;;;;;;;3.00;1.00;;;;;15.16;53.04;100245.31;5074202;28;46116;-65
2022/09/26 07:27:16;;;;;;;;;3.67;2.33;;;;;15.17;53.01;100250.72;5074648;28;45451;-64
2022/09/26 07:29:46;;;;;;;;;3.00;2.00;;;;;15.21;52.89;100244.44;5074563;28;45561;-65
2022/09/26 07:32:12;;;;;;;;;4.67;3.00;;;;;15.37;52.55;100265.94;5073658;28;45521;-65
2022/09/26 07:34:38;;;;;;;;;2.00;2.00;;;;;15.39;52.76;100257.00;5074257;28;45629;-66
2022/09/26 07:37:03;;;;;;;;;3.00;3.00;;;;;15.36;52.83;100245.31;5074500;28;45884;-67
2022/09/26 07:39:28;;;;;;;;;4.00;4.00;;;;;15.38;52.79;100241.72;5074137;28;60378;-59
2022/09/26 07:41:54;;;;;;;;;4.00;2.00;;;;;15.18;52.91;100211.22;5073760;28;52557;-60
2022/09/26 07:44:19;;;;;;;;;0.33;0.33;;;;;15.30;53.43;100222.88;5071284;28;45040;-58
2022/09/26 07:52:12;;;;;;;;;3.67;2.00;;;;;15.24;53.63;100214.81;5095189;27;45553;-58
2022/09/26 07:54:38;;;;;;;;;2.00;2.00;;;;;15.42;53.15;100231.84;5094967;27;45855;-59
2022/09/26 07:57:04;;;;;;;;;4.67;2.67;;;;;15.22;52.95;100189.69;5094905;27;45318;-59
2022/09/26 07:59:34;;;;;;;;;2.33;2.33;;;;;15.35;53.26;100212.13;5094601;27;45454;-57
2022/09/26 08:02:00;;;;;;;;;3.00;2.00;;;;;15.48;53.18;100230.03;5088557;27;45530;-55
2022/09/26 08:04:26;;;;;;;;;5.00;5.00;;;;;15.52;52.83;100233.59;5092308;27;46016;-57
2022/09/26 08:06:53;;;;;;;;;5.33;4.67;;;;;15.40;52.52;100204.03;5094377;27;45412;-58
2022/09/26 08:09:18;;;;;;;;;4.67;2.67;;;;;15.53;53.63;100219.25;5092440;27;45729;-56
2022/09/26 08:11:44;;;;;;;;;4.67;4.67;;;;;15.57;52.89;100220.13;5093629;27;45681;-60
2022/09/26 08:14:09;;;;;;;;;1.00;1.00;;;;;15.58;52.34;100212.06;5094285;27;45376;-56
2022/09/26 08:16:38;;;;;;;;;13.00;13.00;;;;;15.59;52.35;100212.94;5094290;27;45431;-57
2022/09/26 08:19:03;;;;;;;;;3.00;3.00;;;;;15.30;51.87;100160.09;5094696;27;45379;-63
2022/09/26 08:21:29;;;;;;;;;3.00;3.00;;;;;15.55;52.13;100198.59;5094639;27;45578;-56
2022/09/26 08:23:54;;;;;;;;;4.00;2.00;;;;;15.54;51.86;100187.84;5094672;27;45522;-58
2022/09/26 08:26:22;;;;;;;;;2.33;2.33;;;;;15.49;51.80;100177.06;5093926;27;45473;-58
2022/09/26 08:28:47;;;;;;;;;2.00;2.00;;;;;15.71;51.99;100188.69;5094528;27;45440;-58
2022/09/26 08:31:12;;;;;;;;;2.67;2.00;;;;;15.74;51.18;100185.06;5093888;27;48322;-64
2022/09/26 08:33:37;;;;;;;;;3.33;2.00;;;;;15.87;51.05;100183.25;5094224;27;46105;-65
2022/09/26 08:36:08;;;;;;;;;3.67;3.67;;;;;15.91;50.87;100177.84;5094278;27;49353;-65
2022/09/26 08:38:37;;;;;;;;;3.33;3.00;;;;;15.98;50.84;100189.50;5094213;27;45551;-63
2022/09/26 08:41:28;;;;;;;;;0.67;0.67;;;;;16.02;50.38;100186.78;5094451;27;45425;-65
2022/09/26 08:44:12;;;;;;;;;3.00;2.00;;;;;16.05;50.64;100169.69;5089993;27;46337;-63
2022/09/26 08:46:48;;;;;;;;;4.33;3.33;;;;;16.11;50.60;100158.88;5089442;27;45232;-63
2022/09/26 08:49:24;;;;;;;;;1.00;1.00;;;;;16.16;50.21;100172.34;5094152;27;45402;-65
2022/09/26 08:51:53;;;;;;;;;3.33;2.00;;;;;16.18;50.28;100157.06;5094287;27;45495;-64
2022/09/26 08:54:39;;;;;;;;;2.67;2.67;;;;;16.24;49.77;100159.72;5093515;27;46156;-63
2022/09/26 08:57:27;;;;;;;;;2.33;1.00;;;;;16.27;50.06;100153.38;5093959;27;45325;-65
2022/09/26 08:59:53;;;;;;;;;2.67;2.33;;;;;16.32;49.83;100144.38;5093820;27;45270;-62
2022/09/26 09:02:43;;;;;;;;;1.67;1.67;;;;;16.31;49.18;100153.38;5094032;27;45324;-62
2022/09/26 09:05:18;;;;;;;;;3.67;1.67;;;;;16.32;49.47;100139.00;5093644;27;45613;-63
2022/09/26 09:07:49;;;;;;;;;3.67;3.00;;;;;16.39;49.50;100129.94;5093179;27;45351;-65
2022/09/26 09:10:19;;;;;;;;;2.00;2.00;;;;;16.47;48.92;100129.00;5087446;27;45342;-64
2022/09/26 09:12:57;;;;;;;;;4.33;4.00;;;;;16.55;48.89;100124.47;5094277;27;45593;-62
2022/09/26 09:16:03;;;;;;;;;18.00;16.00;;;;;16.62;48.53;100123.47;5093138;27;46433;-66
2022/09/26 09:18:43;;;;;;;;;4.67;2.00;;;;;16.67;48.75;100105.47;5093483;27;45322;-64
2022/09/26 09:21:26;;;;;;;;;1.67;1.67;;;;;16.70;47.89;100099.16;5088915;27;45485;-63
2022/09/26 09:24:08;;;;;;;;;2.67;2.67;;;;;16.78;48.09;100089.19;5093788;27;45458;-63
2022/09/26 09:26:54;;;;;;;;;4.33;2.67;;;;;16.77;47.51;100084.69;5092926;27;46162;-65
2022/09/26 09:30:02;;;;;;;;;2.33;0.67;;;;;16.89;47.52;100076.50;5088013;27;45386;-65
2022/09/26 09:32:40;;;;;;;;;2.33;2.33;;;;;16.69;47.04;100036.19;5086728;27;45385;-66
2022/09/26 09:35:12;;;;;;;;;2.67;2.00;;;;;17.03;47.22;100070.06;5093533;27;45301;-64
2022/09/26 09:37:49;;;;;;;;;3.33;2.67;;;;;16.97;47.32;100054.84;5092875;27;46252;-65
2022/09/26 09:40:50;;;;;;;;;2.33;2.33;;;;;17.06;46.59;100056.53;5093173;27;45555;-64
2022/09/26 09:43:26;;;;;;;;;3.67;3.67;;;;;17.05;46.21;100050.25;5089084;27;45352;-65
2022/09/26 09:46:00;;;;;;;;;6.00;3.33;;;;;17.01;46.66;100051.19;5093018;27;45292;-65
2022/09/26 09:48:26;;;;;;;;;3.00;3.00;;;;;16.86;46.64;100010.88;5093080;27;45619;-63
2022/09/26 09:51:16;;;;;;;;;1.67;1.67;;;;;17.04;46.21;100042.16;5093279;27;45577;-64
2022/09/26 09:53:51;;;;;;;;;4.67;1.00;;;;;17.02;46.63;100042.19;5093681;27;45375;-69
2022/09/26 09:56:41;;;;;;;;;2.67;2.67;;;;;17.02;46.66;100031.38;5096921;27;45532;-63
2022/09/26 09:59:39;;;;;;;;;0.67;0.67;;;;;17.04;46.81;100024.19;5094851;27;48303;-65
2022/09/26 10:02:28;;;;;;;;;2.33;2.33;;;;;17.06;46.65;100029.53;5071468;27;45521;-65
2022/09/26 10:05:29;;;;;;;;;1.00;1.00;;;;;16.98;46.46;100015.25;5091594;27;45421;-65
2022/09/26 10:07:57;;;;;;;;;2.00;1.67;;;;;16.84;46.52;99994.69;5086650;27;45302;-65
2022/09/26 10:10:39;;;;;;;;;2.67;0.67;;;;;16.95;46.48;100005.41;5096265;27;46494;-65
2022/09/26 10:13:05;;;;;;;;;3.00;2.67;;;;;16.93;47.08;99999.13;5095768;27;45422;-65
2022/09/26 10:15:31;;;;;;;;;3.00;3.00;;;;;16.55;47.21;99946.47;5096398;27;45290;-69
2022/09/26 10:18:00;;;;;;;;;3.33;2.67;;;;;16.83;47.18;99994.69;5096389;27;45405;-71
2022/09/26 10:20:36;;;;;;;;;1.67;1.67;;;;;16.82;47.53;99988.41;5095821;27;45439;-65
2022/09/26 10:23:09;;;;;;;;;2.67;2.67;;;;;16.83;47.50;99982.13;5095950;27;45543;-71
2022/09/26 10:25:34;;;;;;;;;3.00;1.33;;;;;16.70;48.22;99967.88;5082854;27;45335;-66
2022/09/26 10:28:03;;;;;;;;;2.33;2.33;;;;;16.69;48.13;99947.19;5093177;27;45399;-65
2022/09/26 10:30:33;;;;;;;;;2.67;2.00;;;;;15.70;48.22;99777.56;5095928;27;45664;-65
2022/09/26 10:33:00;;;;;;;;;15.75;13.75;;;;;16.59;48.62;99922.13;5095673;27;45281;-64
2022/09/26 10:35:38;;;;;;;;;3.67;2.33;;;;;16.68;48.33;99942.72;5095540;27;45378;-64
2022/09/26 10:38:27;;;;;;;;;7.33;3.33;;;;;16.71;48.31;99939.09;5096020;27;45570;-65
2022/09/26 10:40:58;;;;;;;;;9.67;5.00;;;;;16.64;49.60;99924.78;5090931;27;45403;-65
2022/09/26 10:43:27;;;;;;;;;3.67;3.67;;;;;16.81;49.92;99950.66;5091630;27;45458;-65
2022/09/26 10:46:09;;;;;;;;;3.33;2.00;;;;;16.76;49.71;99948.94;5095625;27;45588;-63
2022/09/26 10:48:48;;;;;;;;;3.00;3.00;;;;;16.67;50.65;99940.03;5096104;27;45660;-63
2022/09/26 10:51:26;;;;;;;;;3.67;2.33;;;;;16.67;52.05;99946.31;5095133;27;46440;-65
2022/09/26 10:54:00;;;;;;;;;4.67;3.00;;;;;16.61;53.42;99932.91;5090680;27;45381;-64
2022/09/26 10:56:29;;;;;;;;;4.00;4.00;;;;;16.36;53.72;99883.75;5081993;27;45318;-65
2022/09/26 10:59:02;;;;;;;;;3.33;3.00;;;;;16.57;53.83;99909.59;5095798;27;45476;-67
2022/09/26 11:01:30;;;;;;;;;4.33;3.00;;;;;16.56;53.59;99911.41;5095204;27;45458;-65
2022/09/26 11:04:09;;;;;;;;;4.00;2.00;;;;;16.55;53.32;99917.69;5095643;27;45509;-65
2022/09/26 11:06:42;;;;;;;;;4.33;3.00;;;;;16.42;53.67;99894.47;5095715;27;45284;-66
2022/09/26 11:09:10;;;;;;;;;8.00;5.67;;;;;16.48;54.68;99907.00;5093820;27;45348;-68
2022/09/26 11:11:37;;;;;;;;;4.00;3.00;;;;;16.23;55.14;99874.91;5095576;27;45383;-68
2022/09/26 11:14:07;;;;;;;;;3.00;0.67;;;;;16.32;54.72;99906.28;5095272;27;45355;-64
2022/09/26 11:16:37;;;;;;;;;2.00;1.00;;;;;16.21;55.13;99896.47;5095220;27;45281;-68
2022/09/26 11:19:03;;;;;;;;;2.00;1.67;;;;;16.14;55.00;99896.59;5094437;27;45597;-63
2022/09/26 11:21:50;;;;;;;;;5.00;2.00;;;;;16.09;56.02;99887.66;5095096;27;45370;-73
2022/09/26 11:24:27;;;;;;;;;10.33;4.67;;;;;16.12;57.12;99885.81;5094034;27;45325;-66
2022/09/26 11:27:09;;;;;;;;;7.00;5.00;;;;;16.16;57.74;99884.88;5095299;27;45499;-70
2022/09/26 11:30:10;;;;;;;;;3.33;3.33;;;;;16.13;58.14;99882.19;5095550;27;44778;-72
2022/09/26 11:32:41;;;;;;;;;4.67;3.00;;;;;16.10;58.88;99873.25;5077911;27;45443;-67
2022/09/26 11:35:15;;;;;;;;;3.67;2.67;;;;;15.89;58.76;99859.09;5095566;27;45472;-67
2022/09/26 11:38:10;;;;;;;;;4.00;3.67;;;;;15.96;59.14;99870.72;5095417;27;45352;-68
2022/09/26 11:41:04;;;;;;;;;3.33;2.33;;;;;15.88;60.33;99861.81;5095469;27;45476;-67
2022/09/26 11:44:07;;;;;;;;;3.33;2.67;;;;;15.76;61.19;99858.31;5087675;27;46204;-66
2022/09/26 11:47:00;;;;;;;;;1.33;1.33;;;;;15.67;61.45;99855.66;5088669;27;45368;-64
2022/09/26 11:50:13;;;;;;;;;3.00;2.00;;;;;15.56;62.81;99845.00;5094849;27;45426;-68
2022/09/26 11:53:02;;;;;;;;;2.67;2.67;;;;;15.45;63.61;99841.50;5059965;27;45717;-69
2022/09/26 11:55:44;;;;;;;;;4.67;4.00;;;;;15.33;64.20;99802.13;5094703;27;46353;-65
2022/09/26 11:58:19;;;;;;;;;4.00;2.67;;;;;15.36;65.20;99829.03;5090130;27;45341;-70
2022/09/26 12:01:03;;;;;;;;;4.00;4.00;;;;;15.28;65.90;99829.06;5094626;27;45512;-67